PDT,Max TemperatureF,Mean TemperatureF,Min TemperatureF,Max Dew PointF,MeanDew PointF,Min DewpointF,Max Humidity, Mean Humidity, Min Humidity, Max Sea Level PressureIn, Mean Sea Level PressureIn, Min Sea Level PressureIn, Max VisibilityMiles, Mean VisibilityMiles, Min VisibilityMiles, Max Wind SpeedMPH, Mean Wind SpeedMPH, Max Gust SpeedMPH,PrecipitationIn, CloudCover, Events, WindDirDegrees
2013-4-1,76,60,44,36,34,32,62,42,21,29.99,29.94,29.87,10,10,10,16,9,20,0.00,0,,348
2013-4-2,74,54,34,37,32,22,79,49,19,30.05,29.99,29.93,10,10,10,14,5,17,0.00,0,,278
2013-4-3,70,55,39,36,33,30,70,48,25,30.09,30.02,29.96,10,10,10,17,8,22,0.00,0,,289
2013-4-4,57,51,44,48,43,35,93,70,47,29.96,29.79,29.68,10,9,5,16,5,20,0.12,6,Rain,206
2013-4-5,65,56,47,47,42,35,86,63,39,29.77,29.74,29.71,10,10,10,20,11,25,T,6,,180
2013-4-6,63,54,45,42,33,22,77,51,25,29.80,29.75,29.72,10,10,10,23,11,30,0.03,5,Rain,180
2013-4-7,47,42,37,39,36,28,92,71,49,29.77,29.64,29.55,10,8,4,12,5,18,0.72,8,Rain,321
2013-4-8,56,48,39,40,38,35,92,71,50,30.23,30.03,29.79,10,10,10,13,6,17,0.03,7,Rain,341
2013-4-9,57,45,32,37,35,33,100,72,43,30.33,30.25,30.14,10,10,10,16,6,22,0.00,7,,182
2013-4-10,67,53,38,43,34,26,65,45,24,30.13,29.94,29.77,10,10,10,26,10,40,T,3,Rain,218
2013-4-11,61,48,34,29,27,23,82,53,24,30.12,30.07,30.05,10,10,10,20,8,26,0.00,3,,9
2013-4-12,53,44,34,35,30,27,82,60,38,30.11,29.87,29.55,10,10,10,12,10,14,0.00,4,,178
2013-4-13,55,43,30,32,23,14,89,57,24,29.87,29.69,29.52,10,10,10,10,5,12,T,4,Rain,329
2013-4-14,53,38,22,35,27,19,92,62,32,29.94,29.92,29.88,10,10,7,20,6,25,0.03,3,Rain,354
2013-4-15,54,46,37,37,30,20,92,62,31,30.18,30.03,29.92,10,10,9,20,8,28,0.03,6,Rain,359
2013-4-16,55,43,31,30,23,14,76,49,22,30.39,30.31,30.20,10,10,10,12,9,15,0.00,4,,348
2013-4-17,59,41,23,27,23,19,81,53,24,30.46,30.36,30.28,10,10,10,10,6,14,0.00,3,,218
2013-4-18,63,46,28,38,31,25,85,59,32,30.35,30.23,30.07,10,10,10,14,5,20,0.00,3,,193
2013-4-19,68,57,45,38,35,29,66,47,27,30.06,29.94,29.85,10,10,10,12,8,14,0.00,3,,197
2013-4-20,68,52,35,34,30,25,82,51,20,30.12,30.01,29.95,10,10,10,18,10,25,0.00,2,,289
2013-4-21,54,44,34,32,26,18,70,48,26,30.35,30.19,30.14,10,10,10,24,13,32,T,4,Rain,354
2013-4-22,62,44,25,22,17,11,63,39,14,30.53,30.43,30.36,10,10,10,16,7,21,0.00,0,,342
2013-4-23,64,46,27,30,26,20,72,48,23,30.38,30.29,30.23,10,10,10,23,9,28,0.00,1,,342
2013-4-24,70,51,31,32,27,23,75,47,18,30.33,30.15,29.94,10,10,10,13,4,16,0.00,0,,233
2013-4-25,76,54,32,36,31,26,75,47,19,30.00,29.95,29.91,10,10,10,14,4,17,0.00,0,,242
2013-4-26,79,61,42,40,32,21,76,46,15,30.12,30.07,30.04,10,10,10,23,7,31,0.00,1,,246
2013-4-27,75,59,42,34,31,27,62,41,19,30.04,29.96,29.87,10,10,10,24,10,32,0.00,0,,235
2013-4-28,67,50,33,33,29,22,82,51,19,30.05,29.95,29.79,10,10,5,20,7,26,0.00,1,,209
2013-4-29,57,44,30,30,22,11,62,42,21,30.01,29.84,29.68,10,10,10,32,12,41,0.00,2,,315
2013-4-30,57,41,24,28,19,13,69,45,21,30.38,30.17,30.02,10,10,10,17,6,26,T,2,,344